Time;durP1;ratioP1;P1;durP2;ratioP2;P2;SDS_P1;SDS_P2;PMS_P1;PMS_P2;Temp;Humidity;BMP_temperature;BMP_pressure;BME280_temperature;BME280_humidity;BME280_pressure;Samples;Min_cycle;Max_cycle;Signal;HPM_P1;HPM_P2
2020/12/01 00:01:22;;;;;;;62.47;32.95;;;7.00;99.90;;;;;;5032073;28;20027;-74
2020/12/01 00:03:47;;;;;;;57.40;31.48;;;7.00;99.90;;;;;;5041821;28;20033;-75
2020/12/01 00:06:13;;;;;;;59.28;30.30;;;7.00;99.90;;;;;;5050179;28;20078;-74
2020/12/01 00:08:39;;;;;;;58.58;30.67;;;7.10;99.90;;;;;;5051975;28;20112;-74
2020/12/01 00:11:06;;;;;;;62.33;32.33;;;7.10;99.90;;;;;;5035705;28;20083;-74
2020/12/01 00:13:31;;;;;;;61.38;31.70;;;7.10;99.90;;;;;;5037628;28;20123;-74
2020/12/01 00:15:58;;;;;;;56.10;30.15;;;7.10;99.90;;;;;;5042572;28;20065;-74
2020/12/01 00:18:24;;;;;;;55.08;31.15;;;7.10;99.90;;;;;;5028579;28;20059;-74
2020/12/01 00:20:50;;;;;;;60.60;31.27;;;7.10;99.90;;;;;;5037275;28;20648;-74
2020/12/01 00:23:15;;;;;;;61.38;32.53;;;7.00;99.90;;;;;;5037264;28;20044;-74
2020/12/01 00:25:41;;;;;;;59.08;31.55;;;7.10;99.90;;;;;;5037417;28;20021;-74
2020/12/01 00:28:07;;;;;;;56.97;30.63;;;7.00;99.90;;;;;;5036469;28;20450;-75
2020/12/01 00:30:32;;;;;;;60.08;32.50;;;7.00;99.90;;;;;;5049410;28;20041;-75
2020/12/01 00:32:58;;;;;;;60.22;32.08;;;7.00;99.90;;;;;;5035058;28;20030;-75
2020/12/01 00:35:28;;;;;;;63.00;32.20;;;7.10;99.90;;;;;;5035268;28;20071;-75
2020/12/01 00:37:54;;;;;;;59.17;31.95;;;7.10;99.90;;;;;;5016186;28;20624;-75
2020/12/01 00:40:20;;;;;;;62.05;31.35;;;7.00;99.90;;;;;;5015246;28;20026;-74
2020/12/01 00:42:46;;;;;;;59.38;31.48;;;7.00;99.90;;;;;;5030284;28;20026;-75
2020/12/01 00:45:14;;;;;;;59.05;31.35;;;7.00;99.90;;;;;;5024480;28;20025;-75
2020/12/01 00:47:39;;;;;;;63.75;32.90;;;7.00;99.90;;;;;;5034403;28;20021;-75
2020/12/01 00:50:08;;;;;;;62.35;32.15;;;7.00;99.90;;;;;;5016943;28;20044;-75
2020/12/01 00:52:34;;;;;;;59.60;30.80;;;7.00;99.90;;;;;;5034533;28;20028;-75
2020/12/01 00:54:59;;;;;;;60.70;31.60;;;7.00;99.90;;;;;;5026523;28;20105;-74
2020/12/01 00:57:25;;;;;;;58.45;31.08;;;7.10;99.90;;;;;;4997438;28;20061;-75
2020/12/01 00:59:50;;;;;;;63.10;31.35;;;7.10;99.90;;;;;;5030218;28;20025;-75
2020/12/01 01:02:16;;;;;;;59.42;30.55;;;7.10;99.90;;;;;;5015688;28;20029;-75
2020/12/01 01:04:42;;;;;;;63.42;31.98;;;7.10;99.90;;;;;;5017448;28;20073;-74
2020/12/01 01:07:07;;;;;;;60.78;30.15;;;7.00;99.90;;;;;;5014586;28;20026;-75
2020/12/01 01:09:33;;;;;;;58.60;30.40;;;7.10;99.90;;;;;;5033213;28;20113;-75
2020/12/01 01:11:59;;;;;;;58.10;30.33;;;7.10;99.90;;;;;;5033489;28;20366;-75
2020/12/01 01:14:24;;;;;;;62.85;31.73;;;7.00;99.90;;;;;;5034467;28;20474;-74
2020/12/01 01:16:50;;;;;;;60.22;31.67;;;7.10;99.90;;;;;;5034682;28;20366;-74
2020/12/01 01:19:16;;;;;;;53.53;28.75;;;7.00;99.90;;;;;;5016236;28;20466;-74
2020/12/01 01:21:43;;;;;;;59.50;30.40;;;7.00;99.90;;;;;;5016193;28;20371;-75
2020/12/01 01:24:11;;;;;;;58.72;30.35;;;7.00;99.90;;;;;;5034154;28;20025;-74
2020/12/01 01:26:36;;;;;;;58.25;30.15;;;7.00;99.90;;;;;;5034268;28;20031;-74
2020/12/01 01:29:03;;;;;;;58.85;30.83;;;7.00;99.90;;;;;;5033743;28;20030;-74
2020/12/01 01:31:29;;;;;;;57.17;29.58;;;7.00;99.90;;;;;;5033855;28;20049;-74
2020/12/01 01:33:55;;;;;;;58.78;30.05;;;7.10;99.90;;;;;;5034074;28;20029;-75
2020/12/01 01:36:20;;;;;;;55.80;29.52;;;7.10;99.90;;;;;;5029127;28;20036;-75
2020/12/01 01:38:46;;;;;;;57.97;29.60;;;7.10;99.90;;;;;;5034210;28;20055;-75
2020/12/01 01:41:12;;;;;;;58.38;30.63;;;7.10;99.90;;;;;;5049317;28;20025;-74
2020/12/01 01:43:38;;;;;;;57.17;28.30;;;7.10;99.90;;;;;;5015878;28;20028;-74
2020/12/01 01:46:29;;;;;;;54.58;28.92;;;7.10;99.90;;;;;;5033375;28;20036;-75
2020/12/01 01:48:55;;;;;;;58.22;29.02;;;7.10;99.90;;;;;;5034193;28;20026;-74
2020/12/01 01:51:21;;;;;;;63.15;32.85;;;7.10;99.90;;;;;;5033534;28;20028;-74
2020/12/01 01:53:51;;;;;;;59.75;29.20;;;7.10;99.90;;;;;;5049104;28;20467;-74
2020/12/01 01:56:26;;;;;;;56.67;29.30;;;7.10;99.90;;;;;;5033768;28;20025;-74
2020/12/01 01:58:53;;;;;;;54.53;29.50;;;7.00;99.90;;;;;;5025374;28;20033;-74
2020/12/01 02:01:22;;;;;;;57.58;29.20;;;7.00;99.90;;;;;;5013824;28;20022;-74
2020/12/01 02:03:52;;;;;;;58.28;30.60;;;7.00;99.90;;;;;;5013846;28;20467;-74
2020/12/01 02:06:45;;;;;;;56.60;29.67;;;7.00;99.90;;;;;;5021685;28;20017;-74
2020/12/01 02:09:16;;;;;;;52.28;27.55;;;7.00;99.90;;;;;;5033029;28;20025;-74
2020/12/01 02:11:44;;;;;;;53.93;29.80;;;7.10;99.90;;;;;;5033522;28;20028;-74
2020/12/01 02:14:15;;;;;;;52.08;26.52;;;7.10;99.90;;;;;;5033284;28;20260;-74
2020/12/01 02:16:53;;;;;;;53.47;26.83;;;7.10;99.90;;;;;;5031519;28;20029;-74
2020/12/01 02:19:23;;;;;;;53.03;28.02;;;7.10;99.90;;;;;;5015677;28;20030;-74
2020/12/01 02:21:49;;;;;;;53.03;28.70;;;7.10;99.90;;;;;;5033405;28;20033;-74
2020/12/01 02:24:20;;;;;;;55.95;29.15;;;7.00;99.90;;;;;;5033347;28;20057;-74
2020/12/01 02:26:56;;;;;;;61.43;31.63;;;7.00;99.90;;;;;;5033016;28;20037;-74
2020/12/01 02:29:24;;;;;;;60.00;30.48;;;7.10;99.90;;;;;;5044441;28;20027;-74
2020/12/01 02:31:50;;;;;;;68.95;30.83;;;7.00;99.90;;;;;;5035050;28;20421;-74
2020/12/01 02:34:18;;;;;;;67.03;30.40;;;7.00;99.90;;;;;;5052257;28;20036;-74
2020/12/01 02:36:44;;;;;;;59.30;29.85;;;6.90;99.90;;;;;;5026427;28;20033;-74
2020/12/01 02:39:12;;;;;;;59.45;30.75;;;6.90;99.90;;;;;;4995988;28;20026;-75
2020/12/01 02:41:39;;;;;;;62.33;30.48;;;6.90;99.90;;;;;;5013267;28;20029;-74
2020/12/01 02:44:06;;;;;;;65.43;31.67;;;6.80;99.90;;;;;;5013104;28;20084;-74
2020/12/01 02:46:36;;;;;;;66.43;33.80;;;6.80;99.90;;;;;;5023616;28;20025;-74
2020/12/01 02:49:07;;;;;;;66.80;33.42;;;6.90;99.90;;;;;;5033081;28;20029;-75
2020/12/01 02:51:34;;;;;;;68.00;33.20;;;6.90;99.90;;;;;;5032668;28;20075;-74
2020/12/01 02:54:00;;;;;;;65.75;33.95;;;6.90;99.90;;;;;;5032233;28;20026;-75
2020/12/01 02:56:25;;;;;;;60.85;31.80;;;6.90;99.90;;;;;;5032326;28;20025;-74
2020/12/01 02:58:51;;;;;;;66.80;34.67;;;6.90;99.90;;;;;;5014388;28;20030;-75
2020/12/01 03:01:17;;;;;;;64.88;34.05;;;6.90;99.90;;;;;;5032764;28;20018;-75
2020/12/01 03:03:43;;;;;;;62.88;33.90;;;6.90;99.90;;;;;;5032758;28;20028;-74
2020/12/01 03:06:13;;;;;;;67.75;34.85;;;6.80;99.90;;;;;;5028190;28;20489;-74
2020/12/01 03:08:39;;;;;;;63.17;32.67;;;6.90;99.90;;;;;;4994988;28;20054;-75
2020/12/01 03:11:05;;;;;;;67.50;33.17;;;6.90;99.90;;;;;;5012647;28;20602;-75
2020/12/01 03:13:31;;;;;;;64.25;32.67;;;6.80;99.90;;;;;;5012218;28;20033;-74
2020/12/01 03:16:02;;;;;;;67.50;34.00;;;6.90;99.90;;;;;;5000477;28;20061;-75
2020/12/01 03:18:27;;;;;;;70.77;33.07;;;6.90;99.90;;;;;;5047697;28;20026;-74
2020/12/01 03:20:53;;;;;;;65.57;31.42;;;6.90;99.90;;;;;;5014194;28;20039;-75
2020/12/01 03:23:19;;;;;;;69.72;32.83;;;6.90;99.90;;;;;;5031845;28;20120;-75
2020/12/01 03:25:44;;;;;;;62.00;32.13;;;6.90;99.90;;;;;;5027643;28;20108;-75
2020/12/01 03:28:10;;;;;;;66.45;34.22;;;6.90;99.90;;;;;;5014579;28;20029;-75
2020/12/01 03:30:36;;;;;;;62.80;33.30;;;6.90;99.90;;;;;;5032096;28;20049;-74
2020/12/01 03:33:01;;;;;;;63.92;32.38;;;6.90;99.90;;;;;;5014606;28;20026;-74
2020/12/01 03:35:27;;;;;;;65.30;33.78;;;6.90;99.90;;;;;;5031530;28;20029;-75
2020/12/01 03:37:54;;;;;;;60.45;31.52;;;6.90;99.90;;;;;;5014283;28;20139;-74
2020/12/01 03:40:21;;;;;;;63.00;32.15;;;6.90;99.90;;;;;;5032534;28;20014;-75
2020/12/01 03:42:46;;;;;;;61.13;32.40;;;6.80;99.90;;;;;;5032084;28;20037;-75
2020/12/01 03:45:12;;;;;;;63.90;31.98;;;6.80;99.90;;;;;;5032652;28;20025;-75
2020/12/01 03:47:38;;;;;;;67.75;32.88;;;6.70;99.90;;;;;;5023575;28;20042;-75
2020/12/01 03:50:05;;;;;;;70.85;33.13;;;6.70;99.90;;;;;;5016347;28;20068;-75
2020/12/01 03:52:30;;;;;;;72.07;33.25;;;6.70;99.90;;;;;;5016114;28;20026;-75
2020/12/01 03:54:56;;;;;;;65.13;32.90;;;6.70;99.90;;;;;;5016277;28;20037;-74
2020/12/01 03:57:22;;;;;;;63.22;31.98;;;6.80;99.90;;;;;;5018478;28;20029;-74
2020/12/01 03:59:47;;;;;;;59.13;32.20;;;6.80;99.90;;;;;;5035993;28;20108;-75
2020/12/01 04:02:13;;;;;;;66.57;32.67;;;6.80;99.90;;;;;;5009417;28;20383;-74
2020/12/01 04:04:38;;;;;;;66.43;33.83;;;6.70;99.90;;;;;;5035783;28;20032;-74
2020/12/01 04:07:04;;;;;;;67.97;32.03;;;6.70;99.90;;;;;;5035780;28;20025;-74
2020/12/01 04:09:30;;;;;;;64.47;31.10;;;6.70;99.90;;;;;;5035538;28;20422;-74
2020/12/01 04:11:55;;;;;;;62.08;31.38;;;6.70;99.90;;;;;;5017485;28;20025;-74
2020/12/01 04:14:21;;;;;;;60.78;32.38;;;6.70;99.90;;;;;;5034330;28;20383;-74
2020/12/01 04:16:48;;;;;;;65.80;32.47;;;6.70;99.90;;;;;;5035299;28;20594;-75
2020/12/01 04:19:14;;;;;;;71.97;34.47;;;6.80;99.90;;;;;;5035366;28;20038;-74
2020/12/01 04:21:40;;;;;;;64.65;32.85;;;6.80;99.90;;;;;;5034964;28;20029;-74
2020/12/01 04:24:06;;;;;;;66.35;32.15;;;6.70;99.90;;;;;;5017353;28;20364;-74
2020/12/01 04:26:32;;;;;;;118.75;44.40;;;6.70;99.90;;;;;;5021072;28;20109;-75
2020/12/01 04:28:57;;;;;;;78.97;35.42;;;6.70;99.90;;;;;;5024255;28;20018;-75
2020/12/01 04:31:23;;;;;;;67.63;33.20;;;6.70;99.90;;;;;;4999015;28;20136;-74
2020/12/01 04:33:49;;;;;;;61.03;31.42;;;6.70;99.90;;;;;;5015631;28;20018;-75
2020/12/01 04:36:15;;;;;;;69.20;31.10;;;6.70;99.90;;;;;;5034428;28;20037;-74
2020/12/01 04:38:40;;;;;;;63.67;33.13;;;6.60;99.90;;;;;;5035139;28;20108;-74
2020/12/01 04:41:09;;;;;;;67.22;32.70;;;6.50;99.90;;;;;;5034938;28;20079;-74
2020/12/01 04:43:38;;;;;;;62.30;32.80;;;6.50;99.90;;;;;;5034984;28;20056;-75
2020/12/01 04:46:10;;;;;;;67.60;32.45;;;6.50;99.90;;;;;;5030655;28;20030;-75
2020/12/01 04:48:40;;;;;;;;;;;6.60;99.90;;;;;;4998021;28;20029;-75
2020/12/01 04:51:28;;;;;;;65.28;31.73;;;6.60;99.90;;;;;;5014963;28;20502;-74
2020/12/01 04:54:25;;;;;;;65.40;30.67;;;6.60;99.90;;;;;;5015076;28;20026;-75
2020/12/01 04:57:21;;;;;;;64.07;33.22;;;6.60;99.90;;;;;;4999508;28;20041;-76
2020/12/01 04:59:59;;;;;;;62.33;33.25;;;6.60;99.90;;;;;;5032393;28;20041;-74
2020/12/01 05:02:31;;;;;;;60.85;31.63;;;6.60;99.90;;;;;;5047656;28;20037;-74
2020/12/01 05:05:36;;;;;;;56.00;30.92;;;6.60;99.90;;;;;;5034647;28;20057;-74
2020/12/01 05:08:37;;;;;;;62.88;33.05;;;6.60;99.90;;;;;;5016810;28;20040;-75
2020/12/01 05:11:22;;;;;;;68.53;30.65;;;6.60;99.90;;;;;;5034065;28;20132;-75
2020/12/01 05:13:57;;;;;;;60.60;31.27;;;6.60;99.90;;;;;;5016442;28;20026;-75
2020/12/01 05:16:26;;;;;;;61.50;32.47;;;6.50;99.90;;;;;;5034356;28;20037;-75
2020/12/01 05:18:52;;;;;;;57.55;30.35;;;6.60;99.90;;;;;;5034351;28;20091;-75
2020/12/01 05:21:24;;;;;;;60.58;30.95;;;6.60;99.90;;;;;;5034252;28;20044;-75
2020/12/01 05:23:51;;;;;;;64.25;33.15;;;6.60;99.90;;;;;;5034144;28;20053;-75
2020/12/01 05:26:21;;;;;;;59.05;30.75;;;6.50;99.90;;;;;;5034138;28;20414;-75
2020/12/01 05:28:50;;;;;;;66.03;33.35;;;6.50;99.90;;;;;;5034490;28;20526;-75
2020/12/01 05:31:19;;;;;;;64.03;33.97;;;6.40;99.90;;;;;;5015815;28;20046;-75
2020/12/01 05:33:45;;;;;;;67.65;34.53;;;6.30;99.90;;;;;;5033653;28;20040;-75
2020/12/01 05:36:29;;;;;;;70.97;34.70;;;6.20;99.90;;;;;;5034130;28;20029;-75
2020/12/01 05:38:59;;;;;;;66.88;34.33;;;6.20;99.90;;;;;;5033627;28;20391;-75
2020/12/01 05:41:30;;;;;;;69.43;35.83;;;6.20;99.90;;;;;;5034112;28;20107;-75
2020/12/01 05:44:02;;;;;;;69.13;34.22;;;6.20;99.90;;;;;;5034062;28;20164;-75
2020/12/01 05:46:41;;;;;;;67.40;34.20;;;6.20;99.90;;;;;;5033962;28;20549;-75
2020/12/01 05:49:38;;;;;;;75.75;36.88;;;6.20;99.90;;;;;;5015554;28;20517;-75
2020/12/01 05:52:50;;;;;;;65.85;33.65;;;6.20;99.90;;;;;;5033379;28;20112;-75
2020/12/01 05:55:24;;;;;;;67.33;34.03;;;6.30;99.90;;;;;;5012521;28;20034;-75
2020/12/01 05:58:11;;;;;;;66.57;32.75;;;6.30;99.90;;;;;;5031982;28;20053;-75
2020/12/01 06:00:39;;;;;;;71.38;34.22;;;6.40;99.90;;;;;;5015572;28;20029;-75
2020/12/01 06:03:17;;;;;;;64.85;33.20;;;6.30;99.90;;;;;;5032441;28;20021;-75
2020/12/01 06:05:50;;;;;;;66.72;34.08;;;6.40;99.90;;;;;;5032588;28;20030;-75
2020/12/01 06:08:16;;;;;;;67.75;35.95;;;6.40;99.90;;;;;;5032331;28;20084;-75
2020/12/01 06:10:47;;;;;;;71.28;35.28;;;6.40;99.90;;;;;;5033293;28;20025;-75
2020/12/01 06:13:41;;;;;;;64.75;32.22;;;6.40;99.90;;;;;;5015466;28;20379;-75
2020/12/01 06:16:07;;;;;;;64.95;34.75;;;6.40;99.90;;;;;;5015032;28;20029;-75
2020/12/01 06:18:47;;;;;;;64.22;34.20;;;6.40;99.90;;;;;;5015876;28;20043;-75
2020/12/01 06:21:14;;;;;;;65.47;32.85;;;6.40;99.90;;;;;;5033134;28;20025;-75
2020/12/01 06:23:57;;;;;;;65.18;33.38;;;6.40;99.90;;;;;;5033058;28;20057;-75
2020/12/01 06:27:10;;;;;;;68.20;32.97;;;6.40;99.90;;;;;;5032589;28;20104;-75
2020/12/01 06:29:55;;;;;;;64.88;33.05;;;6.40;99.90;;;;;;5001437;28;20396;-75
2020/12/01 06:32:38;;;;;;;70.97;33.90;;;6.40;99.90;;;;;;5033225;28;20495;-75
2020/12/01 06:35:41;;;;;;;62.78;31.60;;;6.30;99.90;;;;;;5032626;28;20039;-75
2020/12/01 06:38:26;;;;;;;61.83;30.27;;;6.20;99.90;;;;;;5032722;28;20024;-75
2020/12/01 06:41:01;;;;;;;60.45;30.85;;;6.30;99.90;;;;;;5013131;28;20122;-75
2020/12/01 06:43:37;;;;;;;67.03;32.55;;;6.30;99.90;;;;;;5013171;28;20026;-75
2020/12/01 06:46:36;;;;;;;66.18;31.00;;;6.30;99.90;;;;;;4995481;28;20069;-75
2020/12/01 06:49:04;;;;;;;61.95;31.38;;;6.40;99.90;;;;;;4995629;28;20434;-75
2020/12/01 06:51:29;;;;;;;61.75;30.67;;;6.30;99.90;;;;;;5016741;28;20022;-75
2020/12/01 06:54:11;;;;;;;59.33;30.38;;;6.40;99.90;;;;;;5013264;28;20041;-75
2020/12/01 06:56:37;;;;;;;52.83;27.73;;;6.40;99.90;;;;;;5012964;28;20383;-75
2020/12/01 06:59:11;;;;;;;59.35;29.02;;;6.40;99.90;;;;;;5022469;28;20048;-75
2020/12/01 07:01:39;;;;;;;57.70;29.15;;;6.40;99.90;;;;;;5032601;28;20026;-74
2020/12/01 07:04:21;;;;;;;56.47;28.90;;;6.50;99.90;;;;;;5032585;28;20378;-75
2020/12/01 07:06:54;;;;;;;55.60;29.88;;;6.50;99.90;;;;;;5030254;28;20017;-75
2020/12/01 07:09:24;;;;;;;55.70;29.40;;;6.50;99.90;;;;;;4995182;28;20030;-75
2020/12/01 07:12:04;;;;;;;63.45;30.85;;;6.50;99.90;;;;;;4995209;28;20022;-75
2020/12/01 07:14:29;;;;;;;56.45;27.75;;;6.60;99.90;;;;;;5005401;28;20356;-75
2020/12/01 07:16:55;;;;;;;52.53;26.63;;;6.60;99.90;;;;;;5031923;28;20083;-75
2020/12/01 07:19:40;;;;;;;49.83;25.63;;;6.60;99.90;;;;;;5026763;28;20025;-75
2020/12/01 07:22:25;;;;;;;45.35;25.15;;;6.50;99.90;;;;;;5032544;28;20120;-75
2020/12/01 07:25:03;;;;;;;45.35;25.95;;;6.60;99.90;;;;;;5018313;28;20508;-75
2020/12/01 07:27:53;;;;;;;43.75;25.25;;;6.60;99.90;;;;;;5018527;28;20026;-75
2020/12/01 07:30:28;;;;;;;53.70;26.45;;;6.60;99.90;;;;;;4993867;28;20046;-75
2020/12/01 07:32:56;;;;;;;46.72;24.85;;;6.60;99.90;;;;;;5036494;28;20026;-75
2020/12/01 07:35:36;;;;;;;47.63;25.33;;;6.60;99.90;;;;;;5018560;28;20040;-75
2020/12/01 07:38:22;;;;;;;37.20;23.02;;;6.60;99.90;;;;;;5018705;28;20018;-75
2020/12/01 07:40:55;;;;;;;47.63;23.00;;;6.70;99.90;;;;;;5016479;28;20133;-75
2020/12/01 07:43:22;;;;;;;40.08;22.77;;;6.70;99.90;;;;;;5016351;28;20045;-75
2020/12/01 07:45:50;;;;;;;41.17;22.98;;;6.70;99.90;;;;;;4998033;28;20467;-75
2020/12/01 07:48:18;;;;;;;41.42;21.95;;;6.80;99.90;;;;;;5016183;28;20049;-75
2020/12/01 07:50:45;;;;;;;42.92;24.20;;;6.80;99.90;;;;;;5015990;28;20179;-75
2020/12/01 07:53:15;;;;;;;43.20;24.40;;;6.80;99.90;;;;;;5009219;28;20045;-76
2020/12/01 07:55:56;;;;;;;40.75;23.05;;;6.80;99.90;;;;;;5006255;28;20550;-76
2020/12/01 07:58:27;;;;;;;44.60;24.17;;;6.80;99.90;;;;;;5009950;28;20081;-75
2020/12/01 08:01:02;;;;;;;42.05;21.35;;;6.80;99.90;;;;;;5012053;28;20022;-75
2020/12/01 08:03:33;;;;;;;36.40;20.88;;;6.80;99.90;;;;;;4995009;28;20029;-75
2020/12/01 08:06:05;;;;;;;49.50;24.23;;;6.80;99.90;;;;;;5012508;28;20129;-75
2020/12/01 08:08:34;;;;;;;45.45;23.08;;;6.70;99.90;;;;;;4996187;28;20502;-76
2020/12/01 08:11:05;;;;;;;43.88;22.73;;;6.80;99.90;;;;;;5006993;28;20025;-75
2020/12/01 08:13:36;;;;;;;39.03;21.50;;;6.80;99.90;;;;;;4994413;28;20034;-75
2020/12/01 08:16:17;;;;;;;37.90;20.25;;;6.80;99.90;;;;;;4989906;28;20031;-76
2020/12/01 08:18:45;;;;;;;35.60;19.35;;;6.90;99.90;;;;;;5013395;28;20025;-75
2020/12/01 08:21:14;;;;;;;38.63;20.52;;;6.90;99.90;;;;;;5017811;28;20028;-75
2020/12/01 08:23:43;;;;;;;32.40;18.95;;;6.90;99.90;;;;;;5015252;28;20030;-75
2020/12/01 08:26:23;;;;;;;30.67;18.60;;;7.00;99.90;;;;;;5014118;28;20025;-75
2020/12/01 08:29:06;;;;;;;38.97;18.73;;;6.90;99.90;;;;;;5001869;28;20383;-75
2020/12/01 08:31:44;;;;;;;33.00;19.00;;;6.90;99.90;;;;;;5030026;28;20057;-75
2020/12/01 08:34:36;;;;;;;38.13;19.15;;;6.90;99.90;;;;;;4998806;28;20030;-75
2020/12/01 08:37:42;;;;;;;40.08;21.73;;;6.90;99.90;;;;;;5014358;28;20079;-75
2020/12/01 08:40:08;;;;;;;62.00;25.38;;;6.90;99.90;;;;;;4994522;28;20407;-75
2020/12/01 08:42:45;;;;;;;58.25;24.73;;;6.90;99.90;;;;;;5013182;28;20037;-75
2020/12/01 08:45:14;;;;;;;57.33;28.40;;;7.00;99.90;;;;;;5012933;28;20030;-75
2020/12/01 08:47:41;;;;;;;77.75;27.90;;;7.00;99.90;;;;;;5013273;28;20550;-75
2020/12/01 08:50:27;;;;;;;46.60;22.48;;;7.00;99.90;;;;;;4995436;28;20018;-75
2020/12/01 08:53:14;;;;;;;37.63;19.00;;;7.00;99.90;;;;;;5013618;28;20026;-75
2020/12/01 08:55:42;;;;;;;32.28;18.67;;;6.90;99.90;;;;;;5017124;28;20125;-75
2020/12/01 08:58:35;;;;;;;36.47;18.65;;;7.00;99.90;;;;;;5011695;28;20430;-75
2020/12/01 09:01:04;;;;;;;36.65;19.08;;;7.00;99.80;;;;;;5003961;28;20026;-74
2020/12/01 09:03:32;;;;;;;30.45;16.50;;;7.10;99.90;;;;;;5008076;28;20029;-74
2020/12/01 09:05:58;;;;;;;51.05;18.73;;;7.60;99.90;;;;;;5010485;28;20022;-74
2020/12/01 09:17:35;;;;;;;31.45;16.33;;;7.30;98.10;;;;;;5014527;28;20113;-75
2020/12/01 09:23:23;;;;;;;34.63;17.80;;;7.30;97.70;;;;;;5012728;28;20040;-74
2020/12/01 09:25:50;;;;;;;31.15;17.42;;;7.20;97.60;;;;;;5013106;28;20455;-74
2020/12/01 09:28:18;;;;;;;33.45;15.40;;;7.20;97.50;;;;;;4995204;28;20498;-74
2020/12/01 09:30:45;;;;;;;24.05;15.15;;;7.20;97.70;;;;;;5012980;28;20054;-74
2020/12/01 09:33:14;;;;;;;27.92;15.82;;;7.30;98.00;;;;;;5012578;28;20021;-75
2020/12/01 09:35:40;;;;;;;28.75;15.38;;;7.30;97.80;;;;;;5028521;28;20487;-78
2020/12/01 09:38:06;;;;;;;27.02;15.13;;;7.30;98.00;;;;;;5028607;28;20025;-78
2020/12/01 09:40:34;;;;;;;27.88;15.80;;;7.30;97.40;;;;;;5027152;28;20026;-78
2020/12/01 09:43:08;;;;;;;23.50;13.38;;;7.30;97.00;;;;;;5041113;28;20025;-78
2020/12/01 09:45:37;;;;;;;21.73;13.25;;;7.20;96.40;;;;;;5023222;28;20025;-78
2020/12/01 09:48:17;;;;;;;21.10;11.50;;;7.20;96.00;;;;;;5013865;28;20025;-78
2020/12/01 09:50:43;;;;;;;22.00;12.02;;;7.20;94.80;;;;;;5025879;28;20017;-78
2020/12/01 10:28:06;;;;;;;30.40;14.87;;;7.40;97.30;;;;;;5035603;28;20404;-78
2020/12/01 10:35:36;;;;;;;34.67;17.17;;;7.30;97.60;;;;;;5009443;28;20044;-78
2020/12/01 10:38:02;;;;;;;28.95;17.30;;;7.30;97.50;;;;;;5006858;28;20025;-78
2020/12/01 10:40:29;;;;;;;30.85;17.75;;;7.40;97.20;;;;;;5047668;28;20025;-78
2020/12/01 10:42:56;;;;;;;21.50;14.15;;;7.50;97.20;;;;;;5031600;28;20029;-78
2020/12/01 10:45:24;;;;;;;25.65;13.27;;;7.50;95.10;;;;;;5032650;28;20025;-78
2020/12/01 10:47:50;;;;;;;22.13;13.13;;;7.50;94.10;;;;;;5033017;28;20037;-78
2020/12/01 10:50:18;;;;;;;24.52;12.90;;;7.50;93.40;;;;;;5034188;28;20029;-78
2020/12/01 10:52:44;;;;;;;25.08;13.15;;;7.50;94.00;;;;;;5042011;28;20033;-78
2020/12/01 10:55:14;;;;;;;24.15;13.18;;;7.50;94.40;;;;;;5016146;28;20033;-78
2020/12/01 10:57:40;;;;;;;25.02;13.88;;;7.50;93.30;;;;;;5019974;28;20034;-78
2020/12/01 11:00:07;;;;;;;30.00;15.13;;;7.50;93.70;;;;;;5038867;28;20052;-78
2020/12/01 11:02:34;;;;;;;24.58;14.55;;;7.50;94.10;;;;;;5029623;28;20092;-78
2020/12/01 11:05:04;;;;;;;26.60;14.88;;;7.60;94.50;;;;;;5039294;28;20491;-78
2020/12/01 11:07:29;;;;;;;24.55;14.68;;;7.60;94.20;;;;;;5031656;28;20108;-78
2020/12/01 11:09:55;;;;;;;28.20;14.75;;;7.60;94.60;;;;;;5032628;28;20113;-78
2020/12/01 11:12:20;;;;;;;23.65;14.88;;;7.60;94.40;;;;;;5041915;28;20029;-79
2020/12/01 11:14:46;;;;;;;24.25;13.48;;;7.60;94.40;;;;;;5036650;28;20057;-78
2020/12/01 11:17:12;;;;;;;28.00;14.93;;;7.60;94.20;;;;;;5003874;28;20072;-78
2020/12/01 11:19:37;;;;;;;28.33;15.30;;;7.60;94.40;;;;;;5032254;28;20041;-78
2020/12/01 11:22:03;;;;;;;32.10;16.10;;;7.50;94.60;;;;;;5029330;28;20057;-78
2020/12/01 11:24:29;;;;;;;28.63;16.65;;;7.50;95.10;;;;;;5031976;28;20431;-78
2020/12/01 11:26:54;;;;;;;31.85;16.90;;;7.50;95.40;;;;;;5030766;28;20553;-79
2020/12/01 11:29:20;;;;;;;30.52;15.82;;;7.50;95.10;;;;;;5038654;28;20025;-78
2020/12/01 11:31:45;;;;;;;33.15;17.33;;;7.60;95.30;;;;;;5031482;28;20044;-78
2020/12/01 11:34:12;;;;;;;31.40;17.08;;;7.60;95.00;;;;;;5032205;28;20036;-78
2020/12/01 11:36:39;;;;;;;30.25;17.25;;;7.60;95.00;;;;;;5039437;28;20060;-78
2020/12/01 11:39:08;;;;;;;30.67;16.55;;;7.60;94.60;;;;;;5041844;28;20657;-78
2020/12/01 11:41:34;;;;;;;27.83;16.38;;;7.60;94.90;;;;;;5023166;28;20037;-78
2020/12/01 11:44:00;;;;;;;36.05;19.60;;;7.60;95.70;;;;;;5042531;28;20075;-78
2020/12/01 11:46:26;;;;;;;33.85;18.60;;;7.60;95.50;;;;;;5032948;28;20029;-78
2020/12/01 11:48:51;;;;;;;29.95;17.50;;;7.60;95.30;;;;;;5015957;28;20442;-78
2020/12/01 11:51:17;;;;;;;34.65;17.98;;;7.60;95.70;;;;;;5039020;28;20452;-78
2020/12/01 11:53:43;;;;;;;34.65;18.38;;;7.70;95.70;;;;;;5037631;28;20372;-78
2020/12/01 11:56:10;;;;;;;31.77;17.95;;;7.70;95.80;;;;;;5023795;28;20159;-78
2020/12/01 11:58:36;;;;;;;37.10;17.73;;;7.70;96.00;;;;;;5050961;28;20163;-78
2020/12/01 12:01:03;;;;;;;33.20;18.25;;;7.80;95.90;;;;;;5021341;28;20084;-78
2020/12/01 12:03:29;;;;;;;32.45;17.67;;;7.80;95.50;;;;;;5023208;28;20060;-78
2020/12/01 12:05:54;;;;;;;33.90;17.30;;;7.80;95.10;;;;;;5035311;28;20103;-78
2020/12/01 12:08:20;;;;;;;31.75;16.73;;;7.80;95.20;;;;;;5036931;28;20181;-79
2020/12/01 12:10:46;;;;;;;38.22;17.58;;;7.80;95.10;;;;;;5038586;28;20440;-78
2020/12/01 12:13:12;;;;;;;30.75;17.17;;;7.80;94.90;;;;;;5049580;28;20069;-79
2020/12/01 12:15:37;;;;;;;32.17;17.90;;;7.80;95.40;;;;;;5043289;28;20479;-79
2020/12/01 12:18:03;;;;;;;34.50;18.73;;;7.90;95.30;;;;;;5042586;28;20096;-78
2020/12/01 12:20:29;;;;;;;42.25;20.42;;;7.60;95.50;;;;;;5009776;28;20030;-79
2020/12/01 12:22:55;;;;;;;39.95;19.23;;;7.70;96.00;;;;;;5040725;28;20017;-78
2020/12/01 12:25:20;;;;;;;38.05;18.75;;;7.80;96.10;;;;;;5037767;28;20036;-79
2020/12/01 12:27:46;;;;;;;35.80;19.38;;;7.80;96.00;;;;;;5041764;28;20021;-79
2020/12/01 12:30:12;;;;;;;35.00;19.15;;;7.80;95.70;;;;;;5051397;28;20474;-79
2020/12/01 12:32:37;;;;;;;37.58;19.80;;;8.00;95.70;;;;;;5047816;28;20498;-79
2020/12/01 12:35:05;;;;;;;32.50;18.92;;;7.90;95.30;;;;;;5046351;28;20402;-78
2020/12/01 12:37:30;;;;;;;40.22;21.25;;;7.90;95.30;;;;;;5053780;28;20036;-78
2020/12/01 12:39:56;;;;;;;34.63;19.42;;;7.80;95.00;;;;;;5039218;28;20037;-78
2020/12/01 12:42:22;;;;;;;33.97;18.92;;;7.80;95.10;;;;;;5030381;28;20401;-78
2020/12/01 12:44:47;;;;;;;40.85;20.13;;;7.80;95.30;;;;;;5033685;28;20091;-78
2020/12/01 12:47:13;;;;;;;46.03;20.23;;;7.80;95.80;;;;;;5018550;28;20033;-78
2020/12/01 12:49:39;;;;;;;38.80;20.88;;;7.80;95.80;;;;;;5053308;28;20112;-79
2020/12/01 12:52:04;;;;;;;39.88;20.52;;;7.80;96.00;;;;;;5048808;28;20474;-78
2020/12/01 12:54:30;;;;;;;43.00;20.27;;;7.80;95.90;;;;;;5044332;28;20033;-79
2020/12/01 12:56:56;;;;;;;38.20;21.02;;;7.80;96.30;;;;;;5026206;28;20041;-78
2020/12/01 12:59:21;;;;;;;36.22;20.60;;;7.90;96.50;;;;;;5032257;28;20396;-78
2020/12/01 13:01:47;;;;;;;37.22;21.42;;;7.90;96.60;;;;;;5035203;28;20029;-78
2020/12/01 13:04:13;;;;;;;40.38;20.20;;;8.00;96.40;;;;;;5031552;28;20490;-79
2020/12/01 13:06:38;;;;;;;38.85;20.75;;;8.00;95.90;;;;;;5033345;28;20032;-79
2020/12/01 13:09:05;;;;;;;41.38;21.38;;;8.00;96.20;;;;;;5028578;28;20030;-78
2020/12/01 13:11:31;;;;;;;39.28;20.92;;;8.00;96.20;;;;;;5040566;28;20025;-78
2020/12/01 13:13:57;;;;;;;41.85;21.40;;;8.00;96.10;;;;;;5031245;28;20037;-78
2020/12/01 13:16:23;;;;;;;45.13;23.70;;;8.00;96.20;;;;;;5032206;28;20091;-78
2020/12/01 13:18:48;;;;;;;48.35;22.45;;;8.00;96.50;;;;;;5047442;28;20035;-78
2020/12/01 13:21:14;;;;;;;43.17;22.42;;;8.00;96.80;;;;;;5053100;28;20510;-78
2020/12/01 13:23:40;;;;;;;43.13;22.55;;;8.00;96.50;;;;;;5015098;28;20042;-78
2020/12/01 13:26:06;;;;;;;42.88;21.98;;;8.00;96.50;;;;;;5046951;28;20112;-78
2020/12/01 13:28:32;;;;;;;50.28;23.42;;;8.00;96.50;;;;;;5049527;28;20031;-79
2020/12/01 13:30:59;;;;;;;47.90;22.70;;;7.90;96.60;;;;;;5032812;28;20053;-78
2020/12/01 13:33:25;;;;;;;49.03;24.00;;;7.90;96.80;;;;;;5022068;28;20425;-79
2020/12/01 13:35:50;;;;;;;54.83;25.92;;;7.90;96.60;;;;;;5049558;28;20029;-78
2020/12/01 13:38:16;;;;;;;54.72;26.17;;;7.90;96.90;;;;;;5035494;28;20493;-79
2020/12/01 13:40:42;;;;;;;48.25;25.60;;;7.90;97.70;;;;;;5044491;28;20030;-80
2020/12/01 13:43:07;;;;;;;26.38;13.02;;;7.90;97.40;;;;;;5039102;28;20032;-81
2020/12/01 13:45:33;;;;;;;26.83;14.95;;;8.80;99.90;;;;;;5028909;28;20108;-81